Allen Springs, Kentucky
Current Conditions -  °F | °C
As of 9:53 AM on Tuesday 27 Jan 2015 (Local Time) from KBWG Reporting Station
Haze Haze  
Wind Chill: 29°   Ceiling: 600
Heat Index: 34°   Visibility: 5mi
Dew Point: 30°   Wind: 6mph
Humidity: 85%   Direction: 360°N
Pressure: 30.07"   Gusts: NA
Location:  36.8592°N, 86.3531°W
Report Text: KBWG 271553Z AUTO 36005KT 5SM BR OVC006 01/M01 A3007 RMK AO2 CIG 005V009 SLP185 T00111011
Loading
Personal Weather Stations






























Interactive Weather Map New forecast layout! Learn more

10-Day Weather Forecast

Advertisements
Track Severe Weather on mobile